sensor_id;sensor_type;location;lat;lon;timestamp;temperature;humidity
65058;HTU21D;51644;51.068;5.860;2023-03-01T00:00:14;1.47;66.18
65058;HTU21D;51644;51.068;5.860;2023-03-01T00:01:24;1.46;66.14
65058;HTU21D;51644;51.068;5.860;2023-03-01T00:02:23;1.45;66.08
65058;HTU21D;51644;51.068;5.860;2023-03-01T00:03:22;1.41;66.17
65058;HTU21D;51644;51.068;5.860;2023-03-01T00:04:26;1.39;66.22
65058;HTU21D;51644;51.068;5.860;2023-03-01T00:05:26;1.38;66.24
65058;HTU21D;51644;51.068;5.860;2023-03-01T00:06:25;1.35;66.32
65058;HTU21D;51644;51.068;5.860;2023-03-01T00:07:24;1.35;66.30
65058;HTU21D;51644;51.068;5.860;2023-03-01T00:08:23;1.34;66.33
65058;HTU21D;51644;51.068;5.860;2023-03-01T00:09:22;1.37;66.23
65058;HTU21D;51644;51.068;5.860;2023-03-01T00:10:21;1.37;66.18
65058;HTU21D;51644;51.068;5.860;2023-03-01T00:11:25;1.39;66.19
65058;HTU21D;51644;51.068;5.860;2023-03-01T00:12:24;1.40;66.11
65058;HTU21D;51644;51.068;5.860;2023-03-01T00:13:22;1.40;66.02
65058;HTU21D;51644;51.068;5.860;2023-03-01T00:14:21;1.42;65.98
65058;HTU21D;51644;51.068;5.860;2023-03-01T00:15:20;1.43;65.94
65058;HTU21D;51644;51.068;5.860;2023-03-01T00:16:28;1.42;65.95
65058;HTU21D;51644;51.068;5.860;2023-03-01T00:17:27;1.40;66.04
65058;HTU21D;51644;51.068;5.860;2023-03-01T00:18:26;1.40;66.07
65058;HTU21D;51644;51.068;5.860;2023-03-01T00:19:25;1.39;66.06
65058;HTU21D;51644;51.068;5.860;2023-03-01T00:20:24;1.39;66.01
65058;HTU21D;51644;51.068;5.860;2023-03-01T00:21:23;1.40;66.00
65058;HTU21D;51644;51.068;5.860;2023-03-01T00:22:22;1.40;65.95
65058;HTU21D;51644;51.068;5.860;2023-03-01T00:23:23;1.39;66.01
65058;HTU21D;51644;51.068;5.860;2023-03-01T00:24:35;1.39;66.11
65058;HTU21D;51644;51.068;5.860;2023-03-01T00:25:51;1.37;66.18
65058;HTU21D;51644;51.068;5.860;2023-03-01T00:26:53;1.35;66.30
65058;HTU21D;51644;51.068;5.860;2023-03-01T00:27:53;1.34;66.34
65058;HTU21D;51644;51.068;5.860;2023-03-01T00:28:59;1.32;66.33
65058;HTU21D;51644;51.068;5.860;2023-03-01T00:30:03;1.32;66.30
65058;HTU21D;51644;51.068;5.860;2023-03-01T00:31:15;1.31;66.24
65058;HTU21D;51644;51.068;5.860;2023-03-01T00:32:28;1.33;66.28
65058;HTU21D;51644;51.068;5.860;2023-03-01T00:33:27;1.29;66.33
65058;HTU21D;51644;51.068;5.860;2023-03-01T00:34:28;1.31;66.35
65058;HTU21D;51644;51.068;5.860;2023-03-01T00:35:27;1.32;66.33
65058;HTU21D;51644;51.068;5.860;2023-03-01T00:36:29;1.32;66.33
65058;HTU21D;51644;51.068;5.860;2023-03-01T00:37:28;1.32;66.34
65058;HTU21D;51644;51.068;5.860;2023-03-01T00:38:27;1.33;66.30
65058;HTU21D;51644;51.068;5.860;2023-03-01T00:39:25;1.33;66.23
65058;HTU21D;51644;51.068;5.860;2023-03-01T00:40:25;1.33;66.20
65058;HTU21D;51644;51.068;5.860;2023-03-01T00:41:27;1.32;66.27
65058;HTU21D;51644;51.068;5.860;2023-03-01T00:42:26;1.32;66.27
65058;HTU21D;51644;51.068;5.860;2023-03-01T00:43:24;1.32;66.25
65058;HTU21D;51644;51.068;5.860;2023-03-01T00:44:23;1.31;66.25
65058;HTU21D;51644;51.068;5.860;2023-03-01T00:45:22;1.31;66.29
65058;HTU21D;51644;51.068;5.860;2023-03-01T00:46:26;1.29;66.33
65058;HTU21D;51644;51.068;5.860;2023-03-01T00:47:25;1.29;66.39
65058;HTU21D;51644;51.068;5.860;2023-03-01T00:48:36;1.27;66.43
65058;HTU21D;51644;51.068;5.860;2023-03-01T00:49:35;1.27;66.50
65058;HTU21D;51644;51.068;5.860;2023-03-01T00:50:36;1.27;66.51
65058;HTU21D;51644;51.068;5.860;2023-03-01T00:51:34;1.24;66.53
65058;HTU21D;51644;51.068;5.860;2023-03-01T00:52:40;1.24;66.60
65058;HTU21D;51644;51.068;5.860;2023-03-01T00:53:39;1.21;66.65
65058;HTU21D;51644;51.068;5.860;2023-03-01T00:54:41;1.20;66.72
65058;HTU21D;51644;51.068;5.860;2023-03-01T00:55:40;1.19;66.85
65058;HTU21D;51644;51.068;5.860;2023-03-01T00:56:39;1.17;66.99
65058;HTU21D;51644;51.068;5.860;2023-03-01T00:57:40;1.16;67.07
65058;HTU21D;51644;51.068;5.860;2023-03-01T00:58:39;1.14;67.11
65058;HTU21D;51644;51.068;5.860;2023-03-01T00:59:38;1.13;67.14
65058;HTU21D;51644;51.068;5.860;2023-03-01T01:00:39;1.12;67.17
65058;HTU21D;51644;51.068;5.860;2023-03-01T01:01:37;1.10;67.22
65058;HTU21D;51644;51.068;5.860;2023-03-01T01:02:40;1.11;67.28
65058;HTU21D;51644;51.068;5.860;2023-03-01T01:03:39;1.08;67.33
65058;HTU21D;51644;51.068;5.860;2023-03-01T01:04:40;1.09;67.32
65058;HTU21D;51644;51.068;5.860;2023-03-01T01:05:39;1.08;67.32
65058;HTU21D;51644;51.068;5.860;2023-03-01T01:06:46;1.08;67.35
65058;HTU21D;51644;51.068;5.860;2023-03-01T01:07:45;1.06;67.43
65058;HTU21D;51644;51.068;5.860;2023-03-01T01:08:43;1.06;67.39
65058;HTU21D;51644;51.068;5.860;2023-03-01T01:09:42;1.06;67.41
65058;HTU21D;51644;51.068;5.860;2023-03-01T01:10:44;1.04;67.42
65058;HTU21D;51644;51.068;5.860;2023-03-01T01:11:48;1.05;67.51
65058;HTU21D;51644;51.068;5.860;2023-03-01T01:12:47;1.04;67.61
65058;HTU21D;51644;51.068;5.860;2023-03-01T01:13:47;1.02;67.68
65058;HTU21D;51644;51.068;5.860;2023-03-01T01:14:46;1.02;67.75
65058;HTU21D;51644;51.068;5.860;2023-03-01T01:15:44;0.98;67.86
65058;HTU21D;51644;51.068;5.860;2023-03-01T01:16:48;0.96;67.97
65058;HTU21D;51644;51.068;5.860;2023-03-01T01:17:50;0.94;68.00
65058;HTU21D;51644;51.068;5.860;2023-03-01T01:18:49;0.92;68.10
65058;HTU21D;51644;51.068;5.860;2023-03-01T01:19:58;0.90;68.24
65058;HTU21D;51644;51.068;5.860;2023-03-01T01:20:57;0.87;68.30
65058;HTU21D;51644;51.068;5.860;2023-03-01T01:21:55;0.86;68.44
65058;HTU21D;51644;51.068;5.860;2023-03-01T01:22:54;0.81;68.51
65058;HTU21D;51644;51.068;5.860;2023-03-01T01:23:53;0.79;68.55
65058;HTU21D;51644;51.068;5.860;2023-03-01T01:24:52;0.77;68.67
65058;HTU21D;51644;51.068;5.860;2023-03-01T01:25:50;0.76;68.77
65058;HTU21D;51644;51.068;5.860;2023-03-01T01:26:49;0.74;68.87
65058;HTU21D;51644;51.068;5.860;2023-03-01T01:27:48;0.73;68.92
65058;HTU21D;51644;51.068;5.860;2023-03-01T01:28:47;0.72;68.97
65058;HTU21D;51644;51.068;5.860;2023-03-01T01:30:00;0.71;69.10
65058;HTU21D;51644;51.068;5.860;2023-03-01T01:30:59;0.69;69.20
65058;HTU21D;51644;51.068;5.860;2023-03-01T01:31:58;0.67;69.24
65058;HTU21D;51644;51.068;5.860;2023-03-01T01:32:59;0.67;69.20
65058;HTU21D;51644;51.068;5.860;2023-03-01T01:33:59;0.65;69.25
65058;HTU21D;51644;51.068;5.860;2023-03-01T01:34:58;0.64;69.39
65058;HTU21D;51644;51.068;5.860;2023-03-01T01:36:00;0.63;69.50
65058;HTU21D;51644;51.068;5.860;2023-03-01T01:36:58;0.59;69.57
65058;HTU21D;51644;51.068;5.860;2023-03-01T01:38:00;0.59;69.61
65058;HTU21D;51644;51.068;5.860;2023-03-01T01:39:00;0.53;69.70
65058;HTU21D;51644;51.068;5.860;2023-03-01T01:39:59;0.53;69.76
65058;HTU21D;51644;51.068;5.860;2023-03-01T01:40:58;0.53;69.83
65058;HTU21D;51644;51.068;5.860;2023-03-01T01:41:57;0.51;69.86
65058;HTU21D;51644;51.068;5.860;2023-03-01T01:42:56;0.49;69.90
65058;HTU21D;51644;51.068;5.860;2023-03-01T01:44:14;0.51;69.90
65058;HTU21D;51644;51.068;5.860;2023-03-01T01:45:30;0.49;69.81
65058;HTU21D;51644;51.068;5.860;2023-03-01T01:46:40;0.49;69.81
65058;HTU21D;51644;51.068;5.860;2023-03-01T01:47:51;0.48;69.80
65058;HTU21D;51644;51.068;5.860;2023-03-01T01:49:01;0.49;69.90
65058;HTU21D;51644;51.068;5.860;2023-03-01T01:50:01;0.47;69.96
65058;HTU21D;51644;51.068;5.860;2023-03-01T01:51:00;0.47;70.02
65058;HTU21D;51644;51.068;5.860;2023-03-01T01:52:13;0.47;70.10
65058;HTU21D;51644;51.068;5.860;2023-03-01T01:53:15;0.46;70.07
65058;HTU21D;51644;51.068;5.860;2023-03-01T01:54:43;0.40;70.07
65058;HTU21D;51644;51.068;5.860;2023-03-01T01:55:45;0.39;70.16
65058;HTU21D;51644;51.068;5.860;2023-03-01T01:56:55;0.36;70.21
65058;HTU21D;51644;51.068;5.860;2023-03-01T01:57:59;0.35;70.16
65058;HTU21D;51644;51.068;5.860;2023-03-01T01:59:01;0.33;70.23
65058;HTU21D;51644;51.068;5.860;2023-03-01T02:00:06;0.34;70.29
65058;HTU21D;51644;51.068;5.860;2023-03-01T02:01:11;0.33;70.36
65058;HTU21D;51644;51.068;5.860;2023-03-01T02:02:11;0.33;70.42
65058;HTU21D;51644;51.068;5.860;2023-03-01T02:03:17;0.33;70.49
65058;HTU21D;51644;51.068;5.860;2023-03-01T02:04:17;0.32;70.57
65058;HTU21D;51644;51.068;5.860;2023-03-01T02:06:33;0.29;70.65
65058;HTU21D;51644;51.068;5.860;2023-03-01T02:07:34;0.27;70.71
65058;HTU21D;51644;51.068;5.860;2023-03-01T02:08:37;0.27;70.69
65058;HTU21D;51644;51.068;5.860;2023-03-01T02:09:37;0.27;70.76
65058;HTU21D;51644;51.068;5.860;2023-03-01T02:10:52;0.25;70.77
65058;HTU21D;51644;51.068;5.860;2023-03-01T02:11:53;0.24;70.84
65058;HTU21D;51644;51.068;5.860;2023-03-01T02:12:53;0.23;70.93
65058;HTU21D;51644;51.068;5.860;2023-03-01T02:13:54;0.21;70.84
65058;HTU21D;51644;51.068;5.860;2023-03-01T02:14:53;0.19;70.83
65058;HTU21D;51644;51.068;5.860;2023-03-01T02:15:52;0.17;70.77
65058;HTU21D;51644;51.068;5.860;2023-03-01T02:16:53;0.14;70.86
65058;HTU21D;51644;51.068;5.860;2023-03-01T02:17:54;0.09;70.81
65058;HTU21D;51644;51.068;5.860;2023-03-01T02:18:54;0.06;70.85
65058;HTU21D;51644;51.068;5.860;2023-03-01T02:20:18;0.02;70.97
65058;HTU21D;51644;51.068;5.860;2023-03-01T02:22:48;-0.06;71.10
65058;HTU21D;51644;51.068;5.860;2023-03-01T02:23:47;-0.07;71.15
65058;HTU21D;51644;51.068;5.860;2023-03-01T02:26:11;-0.08;71.28
65058;HTU21D;51644;51.068;5.860;2023-03-01T02:27:14;-0.11;71.24
65058;HTU21D;51644;51.068;5.860;2023-03-01T02:29:16;-0.13;71.35
65058;HTU21D;51644;51.068;5.860;2023-03-01T02:30:15;-0.15;71.41
65058;HTU21D;51644;51.068;5.860;2023-03-01T02:31:17;-0.15;71.49
65058;HTU21D;51644;51.068;5.860;2023-03-01T02:32:35;-0.16;71.59
65058;HTU21D;51644;51.068;5.860;2023-03-01T02:33:36;-0.17;71.73
65058;HTU21D;51644;51.068;5.860;2023-03-01T02:34:36;-0.19;71.77
65058;HTU21D;51644;51.068;5.860;2023-03-01T02:35:38;-0.20;71.67
65058;HTU21D;51644;51.068;5.860;2023-03-01T02:36:45;-0.21;71.67
65058;HTU21D;51644;51.068;5.860;2023-03-01T02:37:46;-0.23;71.75
65058;HTU21D;51644;51.068;5.860;2023-03-01T02:38:47;-0.26;71.91
65058;HTU21D;51644;51.068;5.860;2023-03-01T02:40:06;-0.28;72.04
65058;HTU21D;51644;51.068;5.860;2023-03-01T02:41:14;-0.30;72.09
65058;HTU21D;51644;51.068;5.860;2023-03-01T02:42:28;-0.30;72.08
65058;HTU21D;51644;51.068;5.860;2023-03-01T02:43:32;-0.31;72.06
65058;HTU21D;51644;51.068;5.860;2023-03-01T02:44:31;-0.31;72.06
65058;HTU21D;51644;51.068;5.860;2023-03-01T02:45:30;-0.31;71.99
65058;HTU21D;51644;51.068;5.860;2023-03-01T02:46:28;-0.30;71.96
65058;HTU21D;51644;51.068;5.860;2023-03-01T02:47:28;-0.31;71.92
65058;HTU21D;51644;51.068;5.860;2023-03-01T02:48:27;-0.31;71.92
65058;HTU21D;51644;51.068;5.860;2023-03-01T02:49:31;-0.32;72.00
65058;HTU21D;51644;51.068;5.860;2023-03-01T02:52:45;-0.31;72.20
65058;HTU21D;51644;51.068;5.860;2023-03-01T02:54:15;-0.30;72.29
65058;HTU21D;51644;51.068;5.860;2023-03-01T02:55:18;-0.27;72.31
65058;HTU21D;51644;51.068;5.860;2023-03-01T02:56:17;-0.27;72.32
65058;HTU21D;51644;51.068;5.860;2023-03-01T02:57:15;-0.28;72.29
65058;HTU21D;51644;51.068;5.860;2023-03-01T02:58:17;-0.27;72.28
65058;HTU21D;51644;51.068;5.860;2023-03-01T02:59:27;-0.27;72.24
65058;HTU21D;51644;51.068;5.860;2023-03-01T03:00:37;-0.28;72.25
65058;HTU21D;51644;51.068;5.860;2023-03-01T03:01:39;-0.28;72.32
65058;HTU21D;51644;51.068;5.860;2023-03-01T03:02:40;-0.30;72.37
65058;HTU21D;51644;51.068;5.860;2023-03-01T03:03:50;-0.29;72.34
65058;HTU21D;51644;51.068;5.860;2023-03-01T03:04:49;-0.30;72.31
65058;HTU21D;51644;51.068;5.860;2023-03-01T03:05:48;-0.29;72.32
65058;HTU21D;51644;51.068;5.860;2023-03-01T03:06:48;-0.31;72.39
65058;HTU21D;51644;51.068;5.860;2023-03-01T03:07:48;-0.31;72.41
65058;HTU21D;51644;51.068;5.860;2023-03-01T03:08:47;-0.34;72.41
65058;HTU21D;51644;51.068;5.860;2023-03-01T03:09:46;-0.34;72.38
65058;HTU21D;51644;51.068;5.860;2023-03-01T03:10:45;-0.34;72.45
65058;HTU21D;51644;51.068;5.860;2023-03-01T03:11:44;-0.34;72.51
65058;HTU21D;51644;51.068;5.860;2023-03-01T03:12:43;-0.32;72.52
65058;HTU21D;51644;51.068;5.860;2023-03-01T03:13:41;-0.32;72.54
65058;HTU21D;51644;51.068;5.860;2023-03-01T03:14:46;-0.34;72.48
65058;HTU21D;51644;51.068;5.860;2023-03-01T03:15:45;-0.37;72.51
65058;HTU21D;51644;51.068;5.860;2023-03-01T03:16:47;-0.37;72.54
65058;HTU21D;51644;51.068;5.860;2023-03-01T03:17:47;-0.36;72.55
65058;HTU21D;51644;51.068;5.860;2023-03-01T03:18:46;-0.37;72.54
65058;HTU21D;51644;51.068;5.860;2023-03-01T03:19:44;-0.38;72.62
65058;HTU21D;51644;51.068;5.860;2023-03-01T03:20:44;-0.39;72.67
65058;HTU21D;51644;51.068;5.860;2023-03-01T03:21:43;-0.40;72.73
65058;HTU21D;51644;51.068;5.860;2023-03-01T03:22:42;-0.41;72.76
65058;HTU21D;51644;51.068;5.860;2023-03-01T03:23:41;-0.41;72.76
65058;HTU21D;51644;51.068;5.860;2023-03-01T03:24:40;-0.42;72.74
65058;HTU21D;51644;51.068;5.860;2023-03-01T03:25:39;-0.42;72.73
65058;HTU21D;51644;51.068;5.860;2023-03-01T03:26:52;-0.44;72.82
65058;HTU21D;51644;51.068;5.860;2023-03-01T03:27:52;-0.45;72.86
65058;HTU21D;51644;51.068;5.860;2023-03-01T03:28:55;-0.45;72.86
65058;HTU21D;51644;51.068;5.860;2023-03-01T03:29:53;-0.45;72.89
65058;HTU21D;51644;51.068;5.860;2023-03-01T03:30:52;-0.47;72.93
65058;HTU21D;51644;51.068;5.860;2023-03-01T03:31:51;-0.47;72.93
65058;HTU21D;51644;51.068;5.860;2023-03-01T03:32:49;-0.46;72.93
65058;HTU21D;51644;51.068;5.860;2023-03-01T03:33:51;-0.47;72.96
65058;HTU21D;51644;51.068;5.860;2023-03-01T03:34:50;-0.47;72.97
65058;HTU21D;51644;51.068;5.860;2023-03-01T03:35:49;-0.46;72.94
65058;HTU21D;51644;51.068;5.860;2023-03-01T03:36:48;-0.46;72.94
65058;HTU21D;51644;51.068;5.860;2023-03-01T03:37:46;-0.45;72.98
65058;HTU21D;51644;51.068;5.860;2023-03-01T03:39:00;-0.44;72.95
65058;HTU21D;51644;51.068;5.860;2023-03-01T03:40:00;-0.44;72.99
65058;HTU21D;51644;51.068;5.860;2023-03-01T03:41:04;-0.45;73.03
65058;HTU21D;51644;51.068;5.860;2023-03-01T03:42:17;-0.43;72.97
65058;HTU21D;51644;51.068;5.860;2023-03-01T03:43:22;-0.43;72.90
65058;HTU21D;51644;51.068;5.860;2023-03-01T03:44:21;-0.42;72.90
65058;HTU21D;51644;51.068;5.860;2023-03-01T03:45:19;-0.43;72.92
65058;HTU21D;51644;51.068;5.860;2023-03-01T03:46:18;-0.43;72.96
65058;HTU21D;51644;51.068;5.860;2023-03-01T03:47:17;-0.45;72.99
65058;HTU21D;51644;51.068;5.860;2023-03-01T03:48:17;-0.46;73.04
65058;HTU21D;51644;51.068;5.860;2023-03-01T03:49:16;-0.47;73.10
65058;HTU21D;51644;51.068;5.860;2023-03-01T03:50:16;-0.49;73.15
65058;HTU21D;51644;51.068;5.860;2023-03-01T03:51:17;-0.50;73.22
65058;HTU21D;51644;51.068;5.860;2023-03-01T03:52:16;-0.49;73.25
65058;HTU21D;51644;51.068;5.860;2023-03-01T03:53:15;-0.50;73.27
65058;HTU21D;51644;51.068;5.860;2023-03-01T03:54:14;-0.51;73.28
65058;HTU21D;51644;51.068;5.860;2023-03-01T03:55:12;-0.52;73.31
65058;HTU21D;51644;51.068;5.860;2023-03-01T03:56:11;-0.52;73.30
65058;HTU21D;51644;51.068;5.860;2023-03-01T03:57:10;-0.53;73.33
65058;HTU21D;51644;51.068;5.860;2023-03-01T03:58:10;-0.52;73.37
65058;HTU21D;51644;51.068;5.860;2023-03-01T03:59:14;-0.53;73.42
65058;HTU21D;51644;51.068;5.860;2023-03-01T04:00:13;-0.54;73.43
65058;HTU21D;51644;51.068;5.860;2023-03-01T04:01:13;-0.54;73.53
65058;HTU21D;51644;51.068;5.860;2023-03-01T04:02:11;-0.55;73.57
65058;HTU21D;51644;51.068;5.860;2023-03-01T04:03:12;-0.55;73.61
65058;HTU21D;51644;51.068;5.860;2023-03-01T04:04:11;-0.56;73.64
65058;HTU21D;51644;51.068;5.860;2023-03-01T04:05:12;-0.59;73.67
65058;HTU21D;51644;51.068;5.860;2023-03-01T04:06:12;-0.59;73.68
65058;HTU21D;51644;51.068;5.860;2023-03-01T04:07:11;-0.59;73.64
65058;HTU21D;51644;51.068;5.860;2023-03-01T04:08:10;-0.59;73.61
65058;HTU21D;51644;51.068;5.860;2023-03-01T04:09:09;-0.60;73.58
65058;HTU21D;51644;51.068;5.860;2023-03-01T04:10:16;-0.60;73.57
65058;HTU21D;51644;51.068;5.860;2023-03-01T04:11:15;-0.60;73.59
65058;HTU21D;51644;51.068;5.860;2023-03-01T04:12:26;-0.58;73.57
65058;HTU21D;51644;51.068;5.860;2023-03-01T04:13:25;-0.59;73.58
65058;HTU21D;51644;51.068;5.860;2023-03-01T04:14:24;-0.59;73.56
65058;HTU21D;51644;51.068;5.860;2023-03-01T04:15:23;-0.59;73.52
65058;HTU21D;51644;51.068;5.860;2023-03-01T04:16:23;-0.59;73.54
65058;HTU21D;51644;51.068;5.860;2023-03-01T04:17:22;-0.60;73.56
65058;HTU21D;51644;51.068;5.860;2023-03-01T04:18:22;-0.60;73.58
65058;HTU21D;51644;51.068;5.860;2023-03-01T04:19:21;-0.60;73.58
65058;HTU21D;51644;51.068;5.860;2023-03-01T04:20:25;-0.61;73.58
65058;HTU21D;51644;51.068;5.860;2023-03-01T04:21:24;-0.61;73.55
65058;HTU21D;51644;51.068;5.860;2023-03-01T04:22:23;-0.61;73.56
65058;HTU21D;51644;51.068;5.860;2023-03-01T04:23:27;-0.62;73.57
65058;HTU21D;51644;51.068;5.860;2023-03-01T04:24:26;-0.62;73.58
65058;HTU21D;51644;51.068;5.860;2023-03-01T04:25:25;-0.64;73.61
65058;HTU21D;51644;51.068;5.860;2023-03-01T04:26:25;-0.64;73.70
65058;HTU21D;51644;51.068;5.860;2023-03-01T04:27:23;-0.64;73.75
65058;HTU21D;51644;51.068;5.860;2023-03-01T04:28:25;-0.66;73.80
65058;HTU21D;51644;51.068;5.860;2023-03-01T04:29:24;-0.65;73.82
65058;HTU21D;51644;51.068;5.860;2023-03-01T04:30:23;-0.65;73.83
65058;HTU21D;51644;51.068;5.860;2023-03-01T04:31:23;-0.69;73.80
65058;HTU21D;51644;51.068;5.860;2023-03-01T04:32:22;-0.69;73.86
65058;HTU21D;51644;51.068;5.860;2023-03-01T04:33:22;-0.71;73.98
65058;HTU21D;51644;51.068;5.860;2023-03-01T04:34:20;-0.72;74.08
65058;HTU21D;51644;51.068;5.860;2023-03-01T04:35:22;-0.74;74.09
65058;HTU21D;51644;51.068;5.860;2023-03-01T04:36:23;-0.77;74.12
65058;HTU21D;51644;51.068;5.860;2023-03-01T04:37:22;-0.81;74.08
65058;HTU21D;51644;51.068;5.860;2023-03-01T04:38:22;-0.80;74.10
65058;HTU21D;51644;51.068;5.860;2023-03-01T04:39:21;-0.82;74.17
65058;HTU21D;51644;51.068;5.860;2023-03-01T04:40:19;-0.82;74.22
65058;HTU21D;51644;51.068;5.860;2023-03-01T04:41:22;-0.83;74.27
65058;HTU21D;51644;51.068;5.860;2023-03-01T04:42:21;-0.84;74.29
65058;HTU21D;51644;51.068;5.860;2023-03-01T04:43:19;-0.83;74.29
65058;HTU21D;51644;51.068;5.860;2023-03-01T04:44:18;-0.82;74.25
65058;HTU21D;51644;51.068;5.860;2023-03-01T04:45:17;-0.83;74.23
65058;HTU21D;51644;51.068;5.860;2023-03-01T04:46:19;-0.82;74.22
65058;HTU21D;51644;51.068;5.860;2023-03-01T04:47:18;-0.81;74.20
65058;HTU21D;51644;51.068;5.860;2023-03-01T04:48:16;-0.81;74.16
65058;HTU21D;51644;51.068;5.860;2023-03-01T04:49:15;-0.79;74.13
65058;HTU21D;51644;51.068;5.860;2023-03-01T04:50:16;-0.79;74.15
65058;HTU21D;51644;51.068;5.860;2023-03-01T04:51:15;-0.79;74.15
65058;HTU21D;51644;51.068;5.860;2023-03-01T04:52:14;-0.79;74.17
65058;HTU21D;51644;51.068;5.860;2023-03-01T04:53:13;-0.77;74.19
65058;HTU21D;51644;51.068;5.860;2023-03-01T04:54:12;-0.77;74.22
65058;HTU21D;51644;51.068;5.860;2023-03-01T04:55:11;-0.77;74.21
65058;HTU21D;51644;51.068;5.860;2023-03-01T04:56:10;-0.76;74.17
65058;HTU21D;51644;51.068;5.860;2023-03-01T04:57:09;-0.77;74.18
65058;HTU21D;51644;51.068;5.860;2023-03-01T04:58:08;-0.76;74.18
65058;HTU21D;51644;51.068;5.860;2023-03-01T04:59:07;-0.77;74.22
65058;HTU21D;51644;51.068;5.860;2023-03-01T05:00:11;-0.77;74.23
65058;HTU21D;51644;51.068;5.860;2023-03-01T05:01:20;-0.77;74.25
65058;HTU21D;51644;51.068;5.860;2023-03-01T05:02:19;-0.76;74.22
65058;HTU21D;51644;51.068;5.860;2023-03-01T05:03:19;-0.76;74.23
65058;HTU21D;51644;51.068;5.860;2023-03-01T05:04:18;-0.76;74.25
65058;HTU21D;51644;51.068;5.860;2023-03-01T05:05:16;-0.76;74.26
65058;HTU21D;51644;51.068;5.860;2023-03-01T05:06:19;-0.75;74.31
65058;HTU21D;51644;51.068;5.860;2023-03-01T05:07:18;-0.76;74.35
65058;HTU21D;51644;51.068;5.860;2023-03-01T05:08:18;-0.79;74.39
65058;HTU21D;51644;51.068;5.860;2023-03-01T05:09:19;-0.77;74.41
65058;HTU21D;51644;51.068;5.860;2023-03-01T05:10:17;-0.77;74.42
65058;HTU21D;51644;51.068;5.860;2023-03-01T05:11:16;-0.77;74.39
65058;HTU21D;51644;51.068;5.860;2023-03-01T05:12:15;-0.80;74.42
65058;HTU21D;51644;51.068;5.860;2023-03-01T05:13:14;-0.80;74.47
65058;HTU21D;51644;51.068;5.860;2023-03-01T05:14:19;-0.80;74.55
65058;HTU21D;51644;51.068;5.860;2023-03-01T05:15:18;-0.81;74.57
65058;HTU21D;51644;51.068;5.860;2023-03-01T05:16:16;-0.81;74.60
65058;HTU21D;51644;51.068;5.860;2023-03-01T05:17:16;-0.79;74.59
65058;HTU21D;51644;51.068;5.860;2023-03-01T05:18:15;-0.80;74.58
65058;HTU21D;51644;51.068;5.860;2023-03-01T05:19:13;-0.81;74.59
65058;HTU21D;51644;51.068;5.860;2023-03-01T05:20:13;-0.82;74.58
65058;HTU21D;51644;51.068;5.860;2023-03-01T05:21:13;-0.82;74.58
65058;HTU21D;51644;51.068;5.860;2023-03-01T05:22:14;-0.82;74.53
65058;HTU21D;51644;51.068;5.860;2023-03-01T05:23:13;-0.83;74.51
65058;HTU21D;51644;51.068;5.860;2023-03-01T05:24:11;-0.82;74.54
65058;HTU21D;51644;51.068;5.860;2023-03-01T05:25:10;-0.84;74.57
65058;HTU21D;51644;51.068;5.860;2023-03-01T05:26:09;-0.85;74.60
65058;HTU21D;51644;51.068;5.860;2023-03-01T05:27:07;-0.85;74.59
65058;HTU21D;51644;51.068;5.860;2023-03-01T05:28:11;-0.87;74.64
65058;HTU21D;51644;51.068;5.860;2023-03-01T05:29:10;-0.87;74.67
65058;HTU21D;51644;51.068;5.860;2023-03-01T05:30:09;-0.89;74.66
65058;HTU21D;51644;51.068;5.860;2023-03-01T05:31:15;-0.90;74.67
65058;HTU21D;51644;51.068;5.860;2023-03-01T05:32:14;-0.89;74.68
65058;HTU21D;51644;51.068;5.860;2023-03-01T05:33:13;-0.90;74.69
65058;HTU21D;51644;51.068;5.860;2023-03-01T05:34:15;-0.88;74.72
65058;HTU21D;51644;51.068;5.860;2023-03-01T05:35:16;-0.90;74.70
65058;HTU21D;51644;51.068;5.860;2023-03-01T05:36:15;-0.90;74.73
65058;HTU21D;51644;51.068;5.860;2023-03-01T05:37:14;-0.89;74.73
65058;HTU21D;51644;51.068;5.860;2023-03-01T05:38:14;-0.89;74.72
65058;HTU21D;51644;51.068;5.860;2023-03-01T05:39:13;-0.89;74.77
65058;HTU21D;51644;51.068;5.860;2023-03-01T05:40:15;-0.89;74.76
65058;HTU21D;51644;51.068;5.860;2023-03-01T05:41:15;-0.91;74.86
65058;HTU21D;51644;51.068;5.860;2023-03-01T05:42:15;-0.91;74.91
65058;HTU21D;51644;51.068;5.860;2023-03-01T05:43:16;-0.91;74.97
65058;HTU21D;51644;51.068;5.860;2023-03-01T05:44:14;-0.91;74.99
65058;HTU21D;51644;51.068;5.860;2023-03-01T05:45:15;-0.91;75.06
65058;HTU21D;51644;51.068;5.860;2023-03-01T05:46:14;-0.91;75.07
65058;HTU21D;51644;51.068;5.860;2023-03-01T05:47:13;-0.94;75.11
65058;HTU21D;51644;51.068;5.860;2023-03-01T05:48:13;-0.91;75.05
65058;HTU21D;51644;51.068;5.860;2023-03-01T05:49:12;-0.91;75.12
65058;HTU21D;51644;51.068;5.860;2023-03-01T05:50:20;-0.90;75.12
65058;HTU21D;51644;51.068;5.860;2023-03-01T05:51:19;-0.93;75.21
65058;HTU21D;51644;51.068;5.860;2023-03-01T05:52:20;-0.91;75.24
65058;HTU21D;51644;51.068;5.860;2023-03-01T05:53:24;-0.91;75.21
65058;HTU21D;51644;51.068;5.860;2023-03-01T05:54:24;-0.94;75.23
65058;HTU21D;51644;51.068;5.860;2023-03-01T05:55:23;-0.91;75.21
65058;HTU21D;51644;51.068;5.860;2023-03-01T05:56:22;-0.91;75.26
65058;HTU21D;51644;51.068;5.860;2023-03-01T05:57:21;-0.94;75.28
65058;HTU21D;51644;51.068;5.860;2023-03-01T05:58:22;-0.96;75.27
65058;HTU21D;51644;51.068;5.860;2023-03-01T05:59:20;-0.97;75.35
65058;HTU21D;51644;51.068;5.860;2023-03-01T06:00:21;-0.97;75.41
65058;HTU21D;51644;51.068;5.860;2023-03-01T06:01:22;-0.99;75.44
65058;HTU21D;51644;51.068;5.860;2023-03-01T06:02:20;-0.98;75.38
65058;HTU21D;51644;51.068;5.860;2023-03-01T06:03:19;-0.98;75.36
65058;HTU21D;51644;51.068;5.860;2023-03-01T06:04:20;-0.99;75.32
65058;HTU21D;51644;51.068;5.860;2023-03-01T06:05:20;-0.99;75.32
65058;HTU21D;51644;51.068;5.860;2023-03-01T06:06:18;-1.00;75.38
65058;HTU21D;51644;51.068;5.860;2023-03-01T06:07:17;-0.99;75.46
65058;HTU21D;51644;51.068;5.860;2023-03-01T06:08:15;-1.01;75.54
65058;HTU21D;51644;51.068;5.860;2023-03-01T06:09:14;-1.01;75.57
65058;HTU21D;51644;51.068;5.860;2023-03-01T06:10:13;-1.01;75.52
65058;HTU21D;51644;51.068;5.860;2023-03-01T06:11:14;-1.01;75.50
65058;HTU21D;51644;51.068;5.860;2023-03-01T06:12:12;-1.03;75.50
65058;HTU21D;51644;51.068;5.860;2023-03-01T06:13:11;-1.01;75.45
65058;HTU21D;51644;51.068;5.860;2023-03-01T06:14:09;-1.02;75.46
65058;HTU21D;51644;51.068;5.860;2023-03-01T06:15:10;-1.01;75.51
65058;HTU21D;51644;51.068;5.860;2023-03-01T06:16:09;-1.02;75.59
65058;HTU21D;51644;51.068;5.860;2023-03-01T06:17:08;-1.02;75.61
65058;HTU21D;51644;51.068;5.860;2023-03-01T06:18:07;-1.02;75.60
65058;HTU21D;51644;51.068;5.860;2023-03-01T06:19:05;-1.03;75.61
65058;HTU21D;51644;51.068;5.860;2023-03-01T06:20:07;-1.02;75.54
65058;HTU21D;51644;51.068;5.860;2023-03-01T06:21:07;-1.03;75.55
65058;HTU21D;51644;51.068;5.860;2023-03-01T06:22:06;-1.02;75.56
65058;HTU21D;51644;51.068;5.860;2023-03-01T06:23:05;-1.02;75.59
65058;HTU21D;51644;51.068;5.860;2023-03-01T06:24:04;-1.03;75.59
65058;HTU21D;51644;51.068;5.860;2023-03-01T06:25:05;-1.02;75.60
65058;HTU21D;51644;51.068;5.860;2023-03-01T06:26:08;-1.02;75.60
65058;HTU21D;51644;51.068;5.860;2023-03-01T06:27:06;-1.02;75.57
65058;HTU21D;51644;51.068;5.860;2023-03-01T06:28:05;-1.02;75.61
65058;HTU21D;51644;51.068;5.860;2023-03-01T06:29:04;-1.04;75.65
65058;HTU21D;51644;51.068;5.860;2023-03-01T06:30:03;-1.04;75.65